createdAt,value
2022-09-13T00:00:01.494Z,1012.82
2022-09-13T00:01:01.146Z,1012.8
2022-09-13T00:02:01.138Z,1012.72
2022-09-13T00:03:01.098Z,1012.79
2022-09-13T00:04:01.104Z,1012.75
2022-09-13T00:05:01.115Z,1012.75
2022-09-13T00:06:01.129Z,1012.74
2022-09-13T00:07:01.455Z,1012.73
2022-09-13T00:08:01.512Z,1012.72
2022-09-13T00:09:01.045Z,1012.72
2022-09-13T00:10:01.047Z,1012.67
2022-09-13T00:11:04.421Z,1012.63
2022-09-13T00:12:01.729Z,1012.64
2022-09-13T00:13:01.022Z,1012.63
2022-09-13T00:14:01.068Z,1012.61
2022-09-13T00:15:01.438Z,1012.6
2022-09-13T00:16:07.781Z,1012.57
2022-09-13T00:17:01.386Z,1012.6
2022-09-13T00:18:01.113Z,1012.58
2022-09-13T00:19:01.119Z,1012.61
2022-09-13T00:20:01.114Z,1012.55
2022-09-13T00:21:11.195Z,1012.54
2022-09-13T00:22:01.750Z,1012.5
2022-09-13T00:23:00.916Z,1012.47
2022-09-13T00:24:00.613Z,1012.44
2022-09-13T00:25:00.242Z,1012.46
2022-09-13T00:26:14.552Z,1012.46
2022-09-13T00:27:01.033Z,1012.44
2022-09-13T00:28:01.058Z,1012.42
2022-09-13T00:29:01.073Z,1012.44
2022-09-13T00:30:01.088Z,1012.36
2022-09-13T00:31:01.049Z,1012.4
2022-09-13T00:32:00.645Z,1012.35
2022-09-13T00:33:00.266Z,1012.35
2022-09-13T00:33:59.862Z,1012.32
2022-09-13T00:35:01.530Z,1012.35
2022-09-13T00:36:02.122Z,1012.32
2022-09-13T00:37:01.114Z,1012.31
2022-09-13T00:38:01.135Z,1012.32
2022-09-13T00:39:01.152Z,1012.32
2022-09-13T00:40:01.229Z,1012.3
2022-09-13T00:41:01.047Z,1012.26
2022-09-13T00:42:01.051Z,1012.25
2022-09-13T00:43:01.067Z,1012.26
2022-09-13T00:44:01.464Z,1012.21
2022-09-13T00:45:01.070Z,1012.16
2022-09-13T00:46:01.113Z,1012.13
2022-09-13T00:47:01.084Z,1012.09
2022-09-13T00:48:01.098Z,1012.09
2022-09-13T00:49:01.100Z,1012.06
2022-09-13T00:50:01.094Z,1012.06
2022-09-13T00:51:01.128Z,1012.08
2022-09-13T00:52:01.323Z,1012.04
2022-09-13T00:53:01.498Z,1012.05
2022-09-13T00:54:01.046Z,1012.05
2022-09-13T00:55:01.331Z,1011.99
2022-09-13T00:56:01.067Z,1011.95
2022-09-13T00:57:01.561Z,1011.98
2022-09-13T00:58:01.091Z,1011.96
2022-09-13T00:59:01.076Z,1011.95
2022-09-13T01:00:01.142Z,1011.93
2022-09-13T01:01:01.155Z,1011.94
2022-09-13T01:02:01.241Z,1011.92
2022-09-13T01:03:01.087Z,1011.93
2022-09-13T01:04:01.115Z,1011.92
2022-09-13T01:05:01.100Z,1011.91
2022-09-13T01:06:01.703Z,1011.91
2022-09-13T01:07:01.300Z,1011.93
2022-09-13T01:08:01.127Z,1011.93
2022-09-13T01:09:01.286Z,1011.91
2022-09-13T01:10:01.954Z,1011.84
2022-09-13T01:11:01.933Z,1011.83
2022-09-13T01:12:01.132Z,1011.85
2022-09-13T01:13:00.656Z,1011.79
2022-09-13T01:14:00.518Z,1011.78
2022-09-13T01:15:00.400Z,1011.74
2022-09-13T01:16:00.214Z,1011.74
2022-09-13T01:17:00.415Z,1011.73
2022-09-13T01:18:00.059Z,1011.68
2022-09-13T01:18:59.740Z,1011.74
2022-09-13T01:20:01.412Z,1011.71
2022-09-13T01:21:02.563Z,1011.68
2022-09-13T01:22:01.116Z,1011.65
2022-09-13T01:23:01.123Z,1011.65
2022-09-13T01:24:01.118Z,1011.65
2022-09-13T01:25:01.145Z,1011.65
2022-09-13T01:26:01.141Z,1011.67
2022-09-13T01:27:01.434Z,1011.6
2022-09-13T01:28:01.280Z,1011.6
2022-09-13T01:29:01.928Z,1011.59
2022-09-13T01:30:01.748Z,1011.53
2022-09-13T01:31:01.080Z,1011.55
2022-09-13T01:32:01.390Z,1011.48
2022-09-13T01:33:01.370Z,1011.45
2022-09-13T01:34:01.394Z,1011.45
2022-09-13T01:35:01.420Z,1011.44
2022-09-13T01:36:01.422Z,1011.44
2022-09-13T01:37:01.099Z,1011.44
2022-09-13T01:38:01.108Z,1011.44
2022-09-13T01:39:01.042Z,1011.34
2022-09-13T01:40:01.202Z,1011.35
2022-09-13T01:41:04.686Z,1011.28
2022-09-13T01:42:01.407Z,1011.33
2022-09-13T01:43:01.755Z,1011.3
2022-09-13T01:44:01.065Z,1011.28
2022-09-13T01:45:01.075Z,1011.26
2022-09-13T01:46:02.471Z,1011.22
2022-09-13T01:47:02.937Z,1011.23
2022-09-13T01:48:01.742Z,1011.18
2022-09-13T01:49:01.074Z,1011.17
2022-09-13T01:50:01.190Z,1011.11
2022-09-13T01:51:01.406Z,1011.09
2022-09-13T01:52:07.133Z,1011.04
2022-09-13T01:53:01.102Z,1011.03
2022-09-13T01:54:01.049Z,1011.02
2022-09-13T01:55:01.150Z,1010.98
2022-09-13T01:56:01.160Z,1011.01
2022-09-13T01:57:08.698Z,1011.03
2022-09-13T01:58:01.328Z,1011.04
2022-09-13T01:59:01.928Z,1011.03
2022-09-13T02:00:01.991Z,1011.01
2022-09-13T02:01:01.079Z,1010.98
2022-09-13T02:02:10.584Z,1010.93
2022-09-13T02:03:01.146Z,1010.98
2022-09-13T02:04:00.770Z,1010.93
2022-09-13T02:05:00.388Z,1010.98
2022-09-13T02:05:59.951Z,1010.98
2022-09-13T02:07:12.898Z,1011
2022-09-13T02:08:01.126Z,1011.01
2022-09-13T02:09:01.062Z,1010.97
2022-09-13T02:10:01.139Z,1010.95
2022-09-13T02:11:01.143Z,1011.01
2022-09-13T02:12:15.927Z,1010.96
2022-09-13T02:13:01.526Z,1010.98
2022-09-13T02:14:01.144Z,1010.97
2022-09-13T02:15:01.061Z,1010.95
2022-09-13T02:16:01.424Z,1010.95
2022-09-13T02:17:02.019Z,1010.92
2022-09-13T02:18:01.072Z,1010.92
2022-09-13T02:19:00.583Z,1010.93
2022-09-13T02:20:00.253Z,1010.92
2022-09-13T02:21:00.137Z,1010.94
2022-09-13T02:21:59.857Z,1010.99
2022-09-13T02:23:02.299Z,1011.05
2022-09-13T02:24:01.831Z,1011.03
2022-09-13T02:25:02.026Z,1011.07
2022-09-13T02:26:01.276Z,1011.03
2022-09-13T02:27:02.039Z,1011.04
2022-09-13T02:28:01.189Z,1011
2022-09-13T02:29:01.261Z,1011.01
2022-09-13T02:30:03.955Z,1010.96
2022-09-13T02:31:02.061Z,1010.98
2022-09-13T02:32:01.236Z,1011
2022-09-13T02:33:01.060Z,1010.99
2022-09-13T02:34:01.122Z,1010.93
2022-09-13T02:35:01.066Z,1010.96
2022-09-13T02:36:01.095Z,1010.93
2022-09-13T02:37:01.091Z,1010.91
2022-09-13T02:38:01.475Z,1010.95
2022-09-13T02:39:01.519Z,1010.94
2022-09-13T02:40:02.283Z,1010.89
2022-09-13T02:41:01.114Z,1010.86
2022-09-13T02:42:01.137Z,1010.82
2022-09-13T02:43:01.032Z,1010.81
2022-09-13T02:44:01.143Z,1010.79
2022-09-13T02:45:01.047Z,1010.82
2022-09-13T02:46:01.192Z,1010.78
2022-09-13T02:47:01.770Z,1010.79
2022-09-13T02:48:01.621Z,1010.78
2022-09-13T02:49:01.271Z,1010.75
2022-09-13T02:50:01.067Z,1010.78
2022-09-13T02:51:01.027Z,1010.71
2022-09-13T02:52:01.087Z,1010.73
2022-09-13T02:53:01.085Z,1010.76
2022-09-13T02:54:00.829Z,1010.76
2022-09-13T02:55:00.824Z,1010.8
2022-09-13T02:56:00.493Z,1010.73
2022-09-13T02:57:00.028Z,1010.75
2022-09-13T02:57:59.786Z,1010.7
2022-09-13T02:59:01.441Z,1010.74
2022-09-13T03:00:01.153Z,1010.68
2022-09-13T03:01:01.099Z,1010.65
2022-09-13T03:02:01.405Z,1010.62
2022-09-13T03:03:02.104Z,1010.63
2022-09-13T03:04:02.875Z,1010.64
2022-09-13T03:05:01.033Z,1010.59
2022-09-13T03:06:01.079Z,1010.6
2022-09-13T03:07:01.078Z,1010.57
2022-09-13T03:08:01.465Z,1010.62
2022-09-13T03:09:01.043Z,1010.63
2022-09-13T03:10:01.091Z,1010.62
2022-09-13T03:11:01.103Z,1010.55
2022-09-13T03:12:01.112Z,1010.49
2022-09-13T03:13:01.144Z,1010.5
2022-09-13T03:14:01.135Z,1010.48
2022-09-13T03:15:01.013Z,1010.49
2022-09-13T03:16:01.516Z,1010.52
2022-09-13T03:17:01.158Z,1010.49
2022-09-13T03:18:01.039Z,1010.48
2022-09-13T03:19:00.965Z,1010.46
2022-09-13T03:20:01.142Z,1010.48
2022-09-13T03:21:01.124Z,1010.45
2022-09-13T03:22:01.098Z,1010.43
2022-09-13T03:23:00.772Z,1010.38
2022-09-13T03:24:00.627Z,1010.39
2022-09-13T03:25:00.280Z,1010.36
2022-09-13T03:25:59.975Z,1010.26
2022-09-13T03:26:59.503Z,1010.31
2022-09-13T03:28:03.226Z,1010.29
2022-09-13T03:29:01.378Z,1010.28
2022-09-13T03:30:02.559Z,1010.31
2022-09-13T03:31:02.559Z,1010.33
2022-09-13T03:32:01.219Z,1010.32
2022-09-13T03:33:06.318Z,1010.32
2022-09-13T03:34:02.058Z,1010.33
2022-09-13T03:35:02.036Z,1010.26
2022-09-13T03:36:01.065Z,1010.29
2022-09-13T03:37:01.068Z,1010.23
2022-09-13T03:38:08.963Z,1010.28
2022-09-13T03:39:01.026Z,1010.22
2022-09-13T03:40:01.198Z,1010.2
2022-09-13T03:41:01.167Z,1010.23
2022-09-13T03:42:01.167Z,1010.23
2022-09-13T03:43:12.286Z,1010.25
2022-09-13T03:44:01.033Z,1010.27
2022-09-13T03:45:01.109Z,1010.2
2022-09-13T03:46:01.290Z,1010.22
2022-09-13T03:47:01.145Z,1010.16
2022-09-13T03:48:14.742Z,1010.1
2022-09-13T03:49:01.061Z,1010.11
2022-09-13T03:50:01.786Z,1010.13
2022-09-13T03:51:01.176Z,1010.1
2022-09-13T03:52:01.200Z,1010.16
2022-09-13T03:53:01.083Z,1010.14
2022-09-13T03:54:00.777Z,1010.2
2022-09-13T03:55:00.501Z,1010.14
2022-09-13T03:56:00.169Z,1010.2
2022-09-13T03:56:59.755Z,1010.18
2022-09-13T03:58:01.400Z,1010.19
2022-09-13T03:59:01.131Z,1010.18
2022-09-13T04:00:01.315Z,1010.16
2022-09-13T04:01:01.474Z,1010.12
2022-09-13T04:02:01.596Z,1010.13
2022-09-13T04:03:01.528Z,1010.12
2022-09-13T04:04:01.080Z,1010.07
2022-09-13T04:05:00.738Z,1010.05
2022-09-13T04:06:00.437Z,1009.98
2022-09-13T04:07:00.125Z,1009.99
2022-09-13T04:07:59.841Z,1010.02
2022-09-13T04:09:01.492Z,1010.04
2022-09-13T04:10:01.188Z,1010.03
2022-09-13T04:11:01.770Z,1010.07
2022-09-13T04:12:02.296Z,1010.05
2022-09-13T04:13:01.336Z,1010.03
2022-09-13T04:14:02.039Z,1010
2022-09-13T04:15:01.085Z,1010.04
2022-09-13T04:16:01.206Z,1009.99
2022-09-13T04:17:01.038Z,1009.97
2022-09-13T04:18:01.058Z,1009.96
2022-09-13T04:19:01.036Z,1009.95
2022-09-13T04:20:01.455Z,1009.93
2022-09-13T04:21:01.170Z,1010
2022-09-13T04:22:01.029Z,1010
2022-09-13T04:23:01.047Z,1009.95
2022-09-13T04:24:00.678Z,1009.94
2022-09-13T04:25:02.396Z,1009.9
2022-09-13T04:26:01.784Z,1009.9
2022-09-13T04:27:02.109Z,1009.86
2022-09-13T04:28:01.905Z,1009.86
2022-09-13T04:29:00.910Z,1009.85
2022-09-13T04:30:00.557Z,1009.9
2022-09-13T04:31:00.195Z,1009.9
2022-09-13T04:31:59.847Z,1009.89
2022-09-13T04:32:59.535Z,1009.86
2022-09-13T04:34:01.748Z,1009.87
2022-09-13T04:35:01.361Z,1009.87
2022-09-13T04:36:02.475Z,1009.95
2022-09-13T04:37:01.244Z,1009.88
2022-09-13T04:38:01.401Z,1009.87
2022-09-13T04:39:01.118Z,1009.85
2022-09-13T04:40:01.143Z,1009.81
2022-09-13T04:41:01.094Z,1009.78
2022-09-13T04:42:01.125Z,1009.83
2022-09-13T04:43:01.112Z,1009.79
2022-09-13T04:44:01.301Z,1009.78
2022-09-13T04:45:01.230Z,1009.82
2022-09-13T04:46:01.396Z,1009.81
2022-09-13T04:47:02.061Z,1009.77
2022-09-13T04:48:02.159Z,1009.81
2022-09-13T04:49:00.728Z,1009.81
2022-09-13T04:50:00.621Z,1009.84
2022-09-13T04:51:00.288Z,1009.84
2022-09-13T04:51:59.833Z,1009.79
2022-09-13T04:53:01.744Z,1009.86
2022-09-13T04:54:01.132Z,1009.84
2022-09-13T04:55:00.981Z,1009.83
2022-09-13T04:56:01.515Z,1009.81
2022-09-13T04:57:01.455Z,1009.79
2022-09-13T04:58:01.100Z,1009.75
2022-09-13T04:59:01.093Z,1009.78
2022-09-13T05:00:01.116Z,1009.71
2022-09-13T05:01:01.205Z,1009.78
2022-09-13T05:02:01.173Z,1009.73
2022-09-13T05:03:01.035Z,1009.75
2022-09-13T05:04:01.455Z,1009.75
2022-09-13T05:05:01.041Z,1009.69
2022-09-13T05:06:01.056Z,1009.68
2022-09-13T05:07:01.055Z,1009.64
2022-09-13T05:08:01.061Z,1009.65
2022-09-13T05:09:00.709Z,1009.63
2022-09-13T05:10:00.282Z,1009.65
2022-09-13T05:10:59.928Z,1009.66
2022-09-13T05:11:59.532Z,1009.64
2022-09-13T05:13:01.085Z,1009.65
2022-09-13T05:14:01.603Z,1009.59
2022-09-13T05:15:02.103Z,1009.61
2022-09-13T05:16:01.300Z,1009.59
2022-09-13T05:17:01.118Z,1009.61
2022-09-13T05:18:00.919Z,1009.62
2022-09-13T05:19:04.957Z,1009.64
2022-09-13T05:20:00.995Z,1009.63
2022-09-13T05:21:01.175Z,1009.62
2022-09-13T05:22:01.072Z,1009.63
2022-09-13T05:23:01.061Z,1009.61
2022-09-13T05:24:06.240Z,1009.64
2022-09-13T05:25:01.447Z,1009.62
2022-09-13T05:26:02.150Z,1009.64
2022-09-13T05:27:01.854Z,1009.64
2022-09-13T05:28:01.077Z,1009.66
2022-09-13T05:29:07.863Z,1009.67
2022-09-13T05:30:01.411Z,1009.64
2022-09-13T05:31:01.079Z,1009.68
2022-09-13T05:32:01.135Z,1009.67
2022-09-13T05:33:01.305Z,1009.72
2022-09-13T05:34:11.990Z,1009.73
2022-09-13T05:35:02.212Z,1009.71
2022-09-13T05:36:01.130Z,1009.65
2022-09-13T05:37:01.144Z,1009.69
2022-09-13T05:38:01.088Z,1009.64
2022-09-13T05:39:39.722Z,1009.65
2022-09-13T05:40:11.252Z,1009.65
2022-09-13T05:41:01.162Z,1009.65
2022-09-13T05:42:01.422Z,1009.68
2022-09-13T05:43:01.785Z,1009.63
2022-09-13T05:44:16.697Z,1009.63
2022-09-13T05:45:02.523Z,1009.63
2022-09-13T05:46:01.576Z,1009.56
2022-09-13T05:47:01.151Z,1009.55
2022-09-13T05:48:01.228Z,1009.54
2022-09-13T05:49:00.823Z,1009.51
2022-09-13T05:50:33.195Z,1009.51
2022-09-13T05:51:01.527Z,1009.5
2022-09-13T05:52:01.218Z,1009.46
2022-09-13T05:53:01.048Z,1009.5
2022-09-13T05:54:01.067Z,1009.42
2022-09-13T05:55:01.231Z,1009.46
2022-09-13T05:56:01.055Z,1009.45
2022-09-13T05:57:01.069Z,1009.4
2022-09-13T05:58:01.091Z,1009.41
2022-09-13T05:59:01.094Z,1009.4
2022-09-13T06:00:01.169Z,1009.41
2022-09-13T06:01:01.507Z,1009.41
2022-09-13T06:02:01.175Z,1009.42
2022-09-13T06:03:01.910Z,1009.4
2022-09-13T06:04:01.118Z,1009.4
2022-09-13T06:05:01.131Z,1009.36
2022-09-13T06:06:01.122Z,1009.38
2022-09-13T06:07:01.124Z,1009.37
2022-09-13T06:08:01.168Z,1009.37
2022-09-13T06:09:00.851Z,1009.33
2022-09-13T06:10:00.510Z,1009.34
2022-09-13T06:11:00.126Z,1009.3
2022-09-13T06:11:59.822Z,1009.25
2022-09-13T06:13:01.468Z,1009.21
2022-09-13T06:14:01.123Z,1009.2
2022-09-13T06:15:01.104Z,1009.2
2022-09-13T06:16:01.298Z,1009.19
2022-09-13T06:17:02.225Z,1009.21
2022-09-13T06:18:01.583Z,1009.2
2022-09-13T06:19:01.471Z,1009.14
2022-09-13T06:20:01.042Z,1009.19
2022-09-13T06:21:01.042Z,1009.19
2022-09-13T06:22:01.376Z,1009.2
2022-09-13T06:23:01.146Z,1009.22
2022-09-13T06:24:01.500Z,1009.23
2022-09-13T06:25:02.914Z,1009.24
2022-09-13T06:26:01.777Z,1009.27
2022-09-13T06:27:01.057Z,1009.21
2022-09-13T06:28:01.073Z,1009.2
2022-09-13T06:29:00.758Z,1009.22
2022-09-13T06:30:00.576Z,1009.2
2022-09-13T06:31:00.321Z,1009.23
2022-09-13T06:31:59.964Z,1009.23
2022-09-13T06:32:59.558Z,1009.22
2022-09-13T06:34:01.156Z,1009.21
2022-09-13T06:35:01.114Z,1009.19
2022-09-13T06:36:01.146Z,1009.16
2022-09-13T06:37:01.119Z,1009.14
2022-09-13T06:38:01.172Z,1009.16
2022-09-13T06:39:01.140Z,1009.14
2022-09-13T06:40:01.363Z,1009.14
2022-09-13T06:41:01.058Z,1009.11
2022-09-13T06:42:01.066Z,1009.14
2022-09-13T06:43:01.055Z,1009.17
2022-09-13T06:44:01.080Z,1009.16
2022-09-13T06:45:01.075Z,1009.22
2022-09-13T06:46:01.620Z,1009.18
2022-09-13T06:47:01.108Z,1009.18
2022-09-13T06:48:01.115Z,1009.19
2022-09-13T06:49:00.825Z,1009.14
2022-09-13T06:50:00.489Z,1009.13
2022-09-13T06:51:00.083Z,1009.13
2022-09-13T06:51:59.686Z,1009.13
2022-09-13T06:53:01.736Z,1009.12
2022-09-13T06:54:01.161Z,1009.08
2022-09-13T06:55:01.205Z,1009.06
2022-09-13T06:56:01.038Z,1009.05
2022-09-13T06:57:01.043Z,1009.03
2022-09-13T06:58:01.041Z,1009
2022-09-13T06:59:01.090Z,1009.04
2022-09-13T07:00:04.804Z,1009.06
2022-09-13T07:01:01.337Z,1009.03
2022-09-13T07:02:02.124Z,1009.05
2022-09-13T07:03:01.124Z,1009.1
2022-09-13T07:04:01.789Z,1009.05
2022-09-13T07:05:07.299Z,1009.01
2022-09-13T07:06:01.103Z,1009.06
2022-09-13T07:07:01.168Z,1009.07
2022-09-13T07:08:01.135Z,1009.06
2022-09-13T07:09:00.843Z,1009.02
2022-09-13T07:10:09.643Z,1009.04
2022-09-13T07:11:01.147Z,1009.06
2022-09-13T07:12:01.400Z,1009.01
2022-09-13T07:13:01.404Z,1009.03
2022-09-13T07:14:01.586Z,1009.03
2022-09-13T07:15:12.037Z,1009.08
2022-09-13T07:16:01.344Z,1009.06
2022-09-13T07:17:01.670Z,1009.08
2022-09-13T07:18:01.109Z,1009.07
2022-09-13T07:19:01.100Z,1009.06
2022-09-13T07:20:14.478Z,1009.11
2022-09-13T07:21:00.793Z,1009.12
2022-09-13T07:22:00.397Z,1009.11
2022-09-13T07:23:00.090Z,1009.1
2022-09-13T07:23:59.801Z,1009.13
2022-09-13T07:25:01.608Z,1009.12
2022-09-13T07:26:01.043Z,1009.13
2022-09-13T07:27:01.330Z,1009.14
2022-09-13T07:28:02.047Z,1009.15
2022-09-13T07:29:01.593Z,1009.15
2022-09-13T07:30:01.215Z,1009.09
2022-09-13T07:31:02.268Z,1009.08
2022-09-13T07:32:01.074Z,1009.09
2022-09-13T07:33:01.738Z,1009.08
2022-09-13T07:34:01.409Z,1009.11
2022-09-13T07:35:02.115Z,1009.14
2022-09-13T07:36:02.692Z,1009.16
2022-09-13T07:37:01.045Z,1009.13
2022-09-13T07:38:01.134Z,1009.15
2022-09-13T07:39:01.053Z,1009.13
2022-09-13T07:40:01.192Z,1009.13
2022-09-13T07:41:01.135Z,1009.16
2022-09-13T07:42:01.141Z,1009.16
2022-09-13T07:43:01.765Z,1009.11
2022-09-13T07:44:01.195Z,1009.19
2022-09-13T07:45:01.192Z,1009.15
2022-09-13T07:46:01.130Z,1009.15
2022-09-13T07:47:01.076Z,1009.16
2022-09-13T07:48:01.099Z,1009.17
2022-09-13T07:49:01.095Z,1009.14
2022-09-13T07:50:01.086Z,1009.15
2022-09-13T07:51:01.141Z,1009.17
2022-09-13T07:52:01.109Z,1009.29
2022-09-13T07:53:01.109Z,1009.29
2022-09-13T07:54:01.137Z,1009.25
2022-09-13T07:55:01.173Z,1009.34
2022-09-13T07:56:01.518Z,1009.29
2022-09-13T07:57:02.172Z,1009.27
2022-09-13T07:58:02.109Z,1009.27
2022-09-13T07:59:01.164Z,1009.27
2022-09-13T08:00:01.055Z,1009.18
2022-09-13T08:01:01.236Z,1009.23
2022-09-13T08:02:02.636Z,1009.19
2022-09-13T08:03:01.165Z,1009.16
2022-09-13T08:04:00.908Z,1009.12
2022-09-13T08:05:01.202Z,1009.03
2022-09-13T08:06:01.412Z,1009.11
2022-09-13T08:07:01.492Z,1009.07
2022-09-13T08:08:02.554Z,1009.05
2022-09-13T08:09:01.133Z,1009.04
2022-09-13T08:10:00.809Z,1009.06
2022-09-13T08:11:00.404Z,1009.03
2022-09-13T08:11:59.961Z,1009.01
2022-09-13T08:12:59.636Z,1008.95
2022-09-13T08:14:01.215Z,1008.99
2022-09-13T08:15:01.216Z,1009.02
2022-09-13T08:16:02.509Z,1009.1
2022-09-13T08:17:02.226Z,1009.06
2022-09-13T08:18:01.076Z,1009.07
2022-09-13T08:19:01.093Z,1009.12
2022-09-13T08:20:01.092Z,1009.07
2022-09-13T08:21:01.477Z,1009.1
2022-09-13T08:22:02.376Z,1009.13
2022-09-13T08:23:01.117Z,1009.18
2022-09-13T08:24:01.119Z,1009.08
2022-09-13T08:25:01.117Z,1009.16
2022-09-13T08:26:01.118Z,1009.19
2022-09-13T08:27:01.124Z,1009.18
2022-09-13T08:28:01.137Z,1009.21
2022-09-13T08:29:01.264Z,1009.16
2022-09-13T08:30:01.043Z,1009.19
2022-09-13T08:31:01.109Z,1009.12
2022-09-13T08:32:01.060Z,1009.16
2022-09-13T08:33:01.062Z,1009.11
2022-09-13T08:34:01.108Z,1009.13
2022-09-13T08:35:01.091Z,1009.07
2022-09-13T08:36:01.086Z,1009.08
2022-09-13T08:37:01.092Z,1009
2022-09-13T08:38:01.101Z,1008.98
2022-09-13T08:39:01.170Z,1008.94
2022-09-13T08:40:01.437Z,1008.92
2022-09-13T08:41:01.910Z,1008.88
2022-09-13T08:42:01.143Z,1008.92
2022-09-13T08:43:01.129Z,1008.97
2022-09-13T08:44:01.147Z,1008.92
2022-09-13T08:45:01.137Z,1008.91
2022-09-13T08:46:04.783Z,1008.86
2022-09-13T08:47:01.743Z,1008.89
2022-09-13T08:48:01.735Z,1008.91
2022-09-13T08:49:01.394Z,1008.87
2022-09-13T08:50:04.556Z,1008.89
2022-09-13T08:51:07.612Z,1008.86
2022-09-13T08:52:01.218Z,1008.85
2022-09-13T08:53:01.851Z,1008.83
2022-09-13T08:54:01.858Z,1008.83
2022-09-13T08:55:01.842Z,1008.85
2022-09-13T08:56:10.929Z,1008.82
2022-09-13T08:57:02.474Z,1008.81
2022-09-13T08:58:01.782Z,1008.82
2022-09-13T08:59:01.120Z,1008.85
2022-09-13T09:00:01.401Z,1008.82
2022-09-13T09:01:13.414Z,1008.84
2022-09-13T09:02:04.004Z,1008.77
2022-09-13T09:03:01.079Z,1008.78
2022-09-13T09:04:01.056Z,1008.76
2022-09-13T09:05:01.092Z,1008.76
2022-09-13T09:06:16.071Z,1008.71
2022-09-13T09:07:02.093Z,1008.7
2022-09-13T09:08:01.093Z,1008.68
2022-09-13T09:09:01.031Z,1008.66
2022-09-13T09:10:01.113Z,1008.62
2022-09-13T09:11:16.393Z,1008.59
2022-09-13T09:12:01.111Z,1008.59
2022-09-13T09:13:01.127Z,1008.55
2022-09-13T09:14:01.457Z,1008.58
2022-09-13T09:15:01.130Z,1008.59
2022-09-13T09:16:01.244Z,1008.64
2022-09-13T09:17:01.041Z,1008.63
2022-09-13T09:18:01.309Z,1008.64
2022-09-13T09:19:01.484Z,1008.64
2022-09-13T09:20:01.087Z,1008.61
2022-09-13T09:21:01.074Z,1008.62
2022-09-13T09:22:01.076Z,1008.57
2022-09-13T09:23:01.084Z,1008.58
2022-09-13T09:24:01.495Z,1008.6
2022-09-13T09:25:01.502Z,1008.68
2022-09-13T09:26:01.269Z,1008.6
2022-09-13T09:27:01.111Z,1008.6
2022-09-13T09:28:01.129Z,1008.57
2022-09-13T09:29:00.808Z,1008.58
2022-09-13T09:30:01.225Z,1008.57
2022-09-13T09:31:01.283Z,1008.61
2022-09-13T09:32:01.099Z,1008.63
2022-09-13T09:33:01.060Z,1008.61
2022-09-13T09:34:01.057Z,1008.56
2022-09-13T09:35:01.101Z,1008.58
2022-09-13T09:36:03.720Z,1008.61
2022-09-13T09:37:01.769Z,1008.58
2022-09-13T09:38:01.097Z,1008.6
2022-09-13T09:39:01.084Z,1008.65
2022-09-13T09:40:01.630Z,1008.64
2022-09-13T09:41:01.214Z,1008.59
2022-09-13T09:42:01.117Z,1008.6
2022-09-13T09:43:01.140Z,1008.57
2022-09-13T09:44:01.131Z,1008.55
2022-09-13T09:45:01.146Z,1008.58
2022-09-13T09:46:01.248Z,1008.55
2022-09-13T09:47:01.150Z,1008.5
2022-09-13T09:48:01.445Z,1008.49
2022-09-13T09:49:01.065Z,1008.49
2022-09-13T09:50:04.117Z,1008.45
2022-09-13T09:51:01.306Z,1008.46
2022-09-13T09:52:01.978Z,1008.43
2022-09-13T09:53:01.124Z,1008.47
2022-09-13T09:54:01.093Z,1008.52
2022-09-13T09:55:01.090Z,1008.52
2022-09-13T09:56:01.095Z,1008.49
2022-09-13T09:57:01.486Z,1008.45
2022-09-13T09:58:02.214Z,1008.49
2022-09-13T09:59:02.128Z,1008.48
2022-09-13T10:00:01.141Z,1008.41
2022-09-13T10:01:01.181Z,1008.42
2022-09-13T10:02:01.243Z,1008.39
2022-09-13T10:03:08.553Z,1008.39
2022-09-13T10:04:01.044Z,1008.34
2022-09-13T10:05:01.050Z,1008.37
2022-09-13T10:06:01.079Z,1008.38
2022-09-13T10:07:01.086Z,1008.37
2022-09-13T10:08:01.472Z,1008.36
2022-09-13T10:09:01.199Z,1008.39
2022-09-13T10:10:01.845Z,1008.38
2022-09-13T10:11:01.096Z,1008.41
2022-09-13T10:12:01.041Z,1008.4
2022-09-13T10:13:01.071Z,1008.41
2022-09-13T10:14:01.558Z,1008.38
2022-09-13T10:15:01.542Z,1008.36
2022-09-13T10:16:01.935Z,1008.34
2022-09-13T10:17:00.555Z,1008.28
2022-09-13T10:18:00.242Z,1008.29
2022-09-13T10:18:59.833Z,1008.24
2022-09-13T10:20:01.547Z,1008.27
2022-09-13T10:21:01.742Z,1008.31
2022-09-13T10:22:00.841Z,1008.31
2022-09-13T10:23:00.490Z,1008.3
2022-09-13T10:24:00.048Z,1008.33
2022-09-13T10:24:59.655Z,1008.31
2022-09-13T10:26:01.298Z,1008.29
2022-09-13T10:27:03.450Z,1008.25
2022-09-13T10:28:02.045Z,1008.2
2022-09-13T10:29:02.116Z,1008.27
2022-09-13T10:30:00.702Z,1008.19
2022-09-13T10:31:00.443Z,1008.28
2022-09-13T10:32:05.590Z,1008.2
2022-09-13T10:33:02.178Z,1008.23
2022-09-13T10:34:02.157Z,1008.2
2022-09-13T10:35:01.047Z,1008.17
2022-09-13T10:36:01.070Z,1008.16
2022-09-13T10:37:08.402Z,1008.17
2022-09-13T10:38:01.080Z,1008.19
2022-09-13T10:39:01.058Z,1008.14
2022-09-13T10:40:01.201Z,1008.19
2022-09-13T10:41:01.192Z,1008.11
2022-09-13T10:42:11.047Z,1008.15
2022-09-13T10:43:01.486Z,1008.19
2022-09-13T10:44:01.118Z,1008.12
2022-09-13T10:45:01.122Z,1008.14
2022-09-13T10:46:01.186Z,1008.13
2022-09-13T10:47:13.473Z,1008.11
2022-09-13T10:48:01.154Z,1008.11
2022-09-13T10:49:01.156Z,1008.12
2022-09-13T10:50:00.845Z,1008.11
2022-09-13T10:51:00.700Z,1008.09
2022-09-13T10:52:16.153Z,1008.13
2022-09-13T10:53:02.264Z,1008.13
2022-09-13T10:54:01.982Z,1008.1
2022-09-13T10:55:01.156Z,1008.04
2022-09-13T10:56:01.086Z,1008.04
2022-09-13T10:57:01.107Z,1008.09
2022-09-13T10:58:01.104Z,1008.1
2022-09-13T10:59:01.107Z,1008.07
2022-09-13T11:00:01.126Z,1008.01
2022-09-13T11:01:01.377Z,1007.97
2022-09-13T11:02:01.115Z,1008
2022-09-13T11:03:01.253Z,1007.96
2022-09-13T11:04:01.460Z,1007.96
2022-09-13T11:05:01.374Z,1007.98
2022-09-13T11:06:01.372Z,1007.95
2022-09-13T11:07:02.251Z,1007.99
2022-09-13T11:08:03.009Z,1007.94
2022-09-13T11:09:02.007Z,1008.01
2022-09-13T11:10:01.810Z,1007.98
2022-09-13T11:11:01.095Z,1008.02
2022-09-13T11:12:01.089Z,1008.05
2022-09-13T11:13:01.186Z,1008
2022-09-13T11:14:01.521Z,1008.03
2022-09-13T11:15:01.218Z,1008.05
2022-09-13T11:16:01.110Z,1008.06
2022-09-13T11:17:01.121Z,1008.04
2022-09-13T11:18:01.143Z,1008.06
2022-09-13T11:19:01.139Z,1008.11
2022-09-13T11:20:01.531Z,1008.05
2022-09-13T11:21:01.063Z,1008.05
2022-09-13T11:22:01.068Z,1008.03
2022-09-13T11:23:01.474Z,1008
2022-09-13T11:24:01.146Z,1007.99
2022-09-13T11:25:01.078Z,1007.98
2022-09-13T11:26:01.087Z,1007.97
2022-09-13T11:27:01.096Z,1007.92
2022-09-13T11:28:01.102Z,1007.89
2022-09-13T11:29:01.094Z,1007.91
2022-09-13T11:30:00.790Z,1007.86
2022-09-13T11:31:01.422Z,1007.9
2022-09-13T11:32:01.486Z,1007.9
2022-09-13T11:33:02.012Z,1007.92
2022-09-13T11:34:01.131Z,1007.92
2022-09-13T11:35:01.245Z,1007.89
2022-09-13T11:36:01.953Z,1007.89
2022-09-13T11:37:01.363Z,1007.86
2022-09-13T11:38:02.612Z,1007.88
2022-09-13T11:39:02.091Z,1007.91
2022-09-13T11:40:01.631Z,1007.84
2022-09-13T11:41:01.187Z,1007.85
2022-09-13T11:42:03.931Z,1007.9
2022-09-13T11:43:01.784Z,1007.88
2022-09-13T11:44:01.113Z,1007.91
2022-09-13T11:45:01.098Z,1007.87
2022-09-13T11:46:01.121Z,1007.85
2022-09-13T11:47:01.108Z,1007.85
2022-09-13T11:48:01.506Z,1007.84
2022-09-13T11:49:01.133Z,1007.82
2022-09-13T11:50:00.754Z,1007.81
2022-09-13T11:51:00.319Z,1007.78
2022-09-13T11:51:59.939Z,1007.79
2022-09-13T11:52:59.521Z,1007.76
2022-09-13T11:54:01.089Z,1007.75
2022-09-13T11:55:01.155Z,1007.72
2022-09-13T11:56:01.441Z,1007.73
2022-09-13T11:57:01.164Z,1007.69
2022-09-13T11:58:01.088Z,1007.64
2022-09-13T11:59:01.071Z,1007.66
2022-09-13T12:00:01.091Z,1007.68
2022-09-13T12:01:01.104Z,1007.68
2022-09-13T12:02:01.221Z,1007.62
2022-09-13T12:03:01.665Z,1007.6
2022-09-13T12:04:01.960Z,1007.6
2022-09-13T12:06:02.063Z,1007.62
2022-09-13T12:07:01.341Z,1007.62
2022-09-13T12:08:01.071Z,1007.6
2022-09-13T12:09:01.055Z,1007.6